createdAt,value
2022-10-23T00:00:51.355Z,99799.75
2022-10-23T00:03:19.027Z,99794.28
2022-10-23T00:05:46.635Z,99797.66
2022-10-23T00:08:14.267Z,99795.84
2022-10-23T00:10:41.900Z,99795.84
2022-10-23T00:13:09.464Z,99789.94
2022-10-23T00:15:37.521Z,99792.00
2022-10-23T00:18:05.734Z,99783.31
2022-10-23T00:20:33.335Z,99794.09
2022-10-23T00:23:00.877Z,99796.91
2022-10-23T00:25:28.565Z,99797.16
2022-10-23T00:27:56.195Z,99797.41
2022-10-23T00:30:24.312Z,99792.34
2022-10-23T00:32:51.928Z,99792.59
2022-10-23T00:35:19.482Z,99794.53
2022-10-23T00:37:47.492Z,99793.81
2022-10-23T00:40:15.087Z,99791.44
2022-10-23T00:42:43.461Z,99799.69
2022-10-23T00:45:11.112Z,99804.31
2022-10-23T00:47:38.707Z,99807.09
2022-10-23T00:50:06.287Z,99802.84
2022-10-23T00:52:33.808Z,99809.91
2022-10-23T00:55:01.717Z,99807.50
2022-10-23T01:00:01.857Z,99804.00
2022-10-23T01:02:29.496Z,99804.81
2022-10-23T01:04:57.220Z,99806.78
2022-10-23T01:07:25.209Z,99816.59
2022-10-23T01:09:52.797Z,99813.22
2022-10-23T01:12:20.340Z,99807.28
2022-10-23T01:14:47.879Z,99805.59
2022-10-23T01:17:15.438Z,99801.38
2022-10-23T01:19:43.560Z,99807.81
2022-10-23T01:22:11.517Z,99806.28
2022-10-23T01:24:39.185Z,99802.75
2022-10-23T01:27:06.772Z,99805.53
2022-10-23T01:29:34.325Z,99803.03
2022-10-23T01:32:02.635Z,99801.31
2022-10-23T01:34:30.195Z,99793.19
2022-10-23T01:36:57.752Z,99796.16
2022-10-23T01:39:25.344Z,99794.94
2022-10-23T01:41:52.898Z,99786.94
2022-10-23T01:44:22.356Z,99786.94
2022-10-23T01:46:49.907Z,99781.63
2022-10-23T01:49:17.445Z,99779.81
2022-10-23T01:51:44.992Z,99779.81
2022-10-23T01:54:12.592Z,99775.31
2022-10-23T01:56:40.328Z,99774.31
2022-10-23T01:59:07.867Z,99775.31
2022-10-23T02:01:35.585Z,99760.16
2022-10-23T02:04:03.281Z,99762.84
2022-10-23T02:06:31.163Z,99754.69
2022-10-23T02:08:59.313Z,99752.59
2022-10-23T02:11:26.934Z,99754.31
2022-10-23T02:13:55.520Z,99742.78
2022-10-23T02:16:23.115Z,99737.47
2022-10-23T02:18:50.637Z,99737.47
2022-10-23T02:21:18.379Z,99746.31
2022-10-23T02:23:45.961Z,99739.44
2022-10-23T02:26:13.541Z,99728.19
2022-10-23T02:28:41.091Z,99724.94
2022-10-23T02:31:08.662Z,99719.84
2022-10-23T02:33:36.527Z,99730.50
2022-10-23T02:36:04.082Z,99724.34
2022-10-23T02:38:31.668Z,99719.16
2022-10-23T02:40:59.189Z,99718.16
2022-10-23T02:43:26.744Z,99721.69
2022-10-23T02:45:54.927Z,99714.41
2022-10-23T02:48:22.549Z,99717.63
2022-10-23T02:50:50.565Z,99710.34
2022-10-23T02:53:18.165Z,99704.91
2022-10-23T02:55:45.720Z,99700.28
2022-10-23T02:58:13.537Z,99693.00
2022-10-23T03:00:41.144Z,99686.69
2022-10-23T03:03:08.687Z,99686.69
2022-10-23T03:05:36.271Z,99684.72
2022-10-23T03:08:03.864Z,99688.22
2022-10-23T03:10:31.738Z,99693.31
2022-10-23T03:12:59.705Z,99684.31
2022-10-23T03:15:27.267Z,99680.81
2022-10-23T03:17:54.816Z,99688.81
2022-10-23T03:20:22.467Z,99688.09
2022-10-23T03:22:50.388Z,99692.59
2022-10-23T03:25:17.965Z,99695.50
2022-10-23T03:27:45.529Z,99689.47
2022-10-23T03:30:13.274Z,99685.38
2022-10-23T03:32:41.902Z,99674.13
2022-10-23T03:35:11.689Z,99661.94
2022-10-23T03:37:39.273Z,99662.06
2022-10-23T03:40:06.903Z,99667.53
2022-10-23T03:42:34.459Z,99667.69
2022-10-23T03:45:02.065Z,99672.28
2022-10-23T03:47:30.532Z,99674.13
2022-10-23T03:49:58.080Z,99668.63
2022-10-23T03:52:25.699Z,99665.00
2022-10-23T03:54:53.263Z,99658.53
2022-10-23T03:57:20.784Z,99656.63
2022-10-23T03:59:48.881Z,99653.66
2022-10-23T04:02:16.508Z,99643.72
2022-10-23T04:04:44.072Z,99639.09
2022-10-23T04:07:11.657Z,99617.63
2022-10-23T04:09:39.244Z,99621.28
2022-10-23T04:12:07.155Z,99624.06
2022-10-23T04:14:34.748Z,99623.38
2022-10-23T04:17:02.836Z,99621.56
2022-10-23T04:19:30.371Z,99617.78
2022-10-23T04:21:58.336Z,99611.19
2022-10-23T04:24:26.203Z,99606.56
2022-10-23T04:26:53.779Z,99623.41
2022-10-23T04:29:23.098Z,99627.63
2022-10-23T04:31:51.449Z,99631.97
2022-10-23T04:34:19.034Z,99630.03
2022-10-23T04:36:47.153Z,99622.72
2022-10-23T04:39:15.073Z,99624.44
2022-10-23T04:41:42.662Z,99626.81
2022-10-23T04:44:10.268Z,99622.47
2022-10-23T04:46:37.828Z,99618.81
2022-10-23T04:49:05.710Z,99614.34
2022-10-23T04:51:33.318Z,99612.63
2022-10-23T04:54:00.912Z,99620.50
2022-10-23T04:56:28.526Z,99613.47
2022-10-23T04:58:56.190Z,99607.16
2022-10-23T05:01:24.484Z,99598.19
2022-10-23T05:03:54.088Z,99595.50
2022-10-23T05:06:21.713Z,99586.69
2022-10-23T05:08:49.260Z,99588.50
2022-10-23T05:11:16.816Z,99589.34
2022-10-23T05:13:44.970Z,99583.03
2022-10-23T05:16:12.576Z,99580.38
2022-10-23T05:18:40.128Z,99571.38
2022-10-23T05:21:07.723Z,99575.03
2022-10-23T05:23:35.603Z,99575.03
2022-10-23T05:26:04.584Z,99573.50
2022-10-23T05:28:32.187Z,99569.97
2022-10-23T05:31:00.160Z,99559.16
2022-10-23T05:33:27.690Z,99569.72
2022-10-23T05:35:55.281Z,99564.09
2022-10-23T05:38:23.400Z,99571.72
2022-10-23T05:40:50.970Z,99571.16
2022-10-23T05:43:18.571Z,99567.25
2022-10-23T05:45:46.436Z,99571.59
2022-10-23T05:48:29.852Z,99574.28
2022-10-23T05:51:01.520Z,99563.84
2022-10-23T05:53:29.109Z,99560.63
2022-10-23T05:55:56.652Z,99559.09
2022-10-23T05:58:24.264Z,99555.00
2022-10-23T06:00:51.820Z,99555.09
2022-10-23T06:03:19.559Z,99568.34
2022-10-23T06:05:47.652Z,99560.22
2022-10-23T06:08:15.218Z,99560.78
2022-10-23T06:10:42.756Z,99560.63
2022-10-23T06:13:10.390Z,99561.34
2022-10-23T06:15:38.803Z,99555.84
2022-10-23T06:18:06.401Z,99551.50
2022-10-23T06:20:34.017Z,99537.19
2022-10-23T06:23:01.580Z,99529.06
2022-10-23T06:25:29.145Z,99532.28
2022-10-23T06:27:57.295Z,99535.66
2022-10-23T06:30:24.969Z,99531.88
2022-10-23T06:32:52.585Z,99521.75
2022-10-23T06:35:20.205Z,99525.97
2022-10-23T06:37:47.799Z,99531.47
2022-10-23T06:40:15.990Z,99519.66
2022-10-23T06:42:43.920Z,99525.81
2022-10-23T06:45:11.626Z,99524.84
2022-10-23T06:47:39.495Z,99531.00
2022-10-23T06:50:10.572Z,99523.78
2022-10-23T06:52:47.152Z,99521.25
2022-10-23T06:55:15.417Z,99513.94
2022-10-23T06:57:43.228Z,99512.59
2022-10-23T07:00:11.055Z,99507.78
2022-10-23T07:02:38.680Z,99513.81
2022-10-23T07:05:08.832Z,99515.97
2022-10-23T07:07:40.721Z,99517.00
2022-10-23T07:10:08.334Z,99512.00
2022-10-23T07:12:35.985Z,99515.00
2022-10-23T07:15:03.755Z,99510.81
2022-10-23T07:17:31.727Z,99505.91
2022-10-23T07:19:59.401Z,99502.00
2022-10-23T07:22:27.143Z,99507.78
2022-10-23T07:24:54.881Z,99510.44
2022-10-23T07:27:22.507Z,99496.25
2022-10-23T07:29:50.528Z,99505.34
2022-10-23T07:32:18.224Z,99500.22
2022-10-23T07:34:45.954Z,99506.91
2022-10-23T07:37:13.687Z,99506.28
2022-10-23T07:39:41.393Z,99502.13
2022-10-23T07:42:09.709Z,99506.19
2022-10-23T07:44:37.470Z,99513.91
2022-10-23T07:47:05.153Z,99506.53
2022-10-23T07:49:32.901Z,99508.91
2022-10-23T07:52:01.017Z,99506.06
2022-10-23T07:54:29.403Z,99497.72
2022-10-23T07:56:57.142Z,99497.53
2022-10-23T07:59:24.974Z,99499.25
2022-10-23T08:01:55.819Z,99492.56
2022-10-23T08:04:25.099Z,99493.22
2022-10-23T08:06:53.986Z,99492.91
2022-10-23T08:09:21.628Z,99494.44
2022-10-23T08:11:49.546Z,99486.75
2022-10-23T08:14:17.735Z,99481.59
2022-10-23T08:16:45.473Z,99473.72
2022-10-23T08:19:13.436Z,99476.44
2022-10-23T08:21:41.217Z,99472.97
2022-10-23T08:24:13.446Z,99477.22
2022-10-23T08:26:41.269Z,99471.69
2022-10-23T08:29:09.174Z,99466.34
2022-10-23T08:31:38.081Z,99459.66
2022-10-23T08:34:06.003Z,99459.00
2022-10-23T08:36:34.295Z,99454.66
2022-10-23T08:39:02.105Z,99445.06
2022-10-23T08:41:29.831Z,99446.94
2022-10-23T08:43:58.473Z,99450.44
2022-10-23T08:46:26.189Z,99437.16
2022-10-23T08:48:54.039Z,99438.13
2022-10-23T08:51:21.845Z,99438.56
2022-10-23T08:53:49.574Z,99437.31
2022-10-23T08:56:18.071Z,99434.16
2022-10-23T08:58:46.353Z,99425.84
2022-10-23T09:01:14.389Z,99431.31
2022-10-23T09:03:42.194Z,99427.66
2022-10-23T09:06:10.027Z,99429.19
2022-10-23T09:08:37.998Z,99437.34
2022-10-23T09:11:05.831Z,99434.22
2022-10-23T09:13:33.663Z,99422.78
2022-10-23T09:16:01.466Z,99422.41
2022-10-23T09:18:29.235Z,99415.72
2022-10-23T09:20:58.110Z,99417.59
2022-10-23T09:23:25.951Z,99412.56
2022-10-23T09:25:57.221Z,99413.75
2022-10-23T09:28:25.161Z,99418.88
2022-10-23T09:30:53.481Z,99418.75
2022-10-23T09:33:22.229Z,99409.97
2022-10-23T09:35:49.955Z,99391.28
2022-10-23T09:38:17.808Z,99391.63
2022-10-23T09:40:45.487Z,99396.13
2022-10-23T09:43:13.346Z,99399.44
2022-10-23T09:45:43.234Z,99399.59
2022-10-23T09:48:11.080Z,99391.88
2022-10-23T09:50:38.898Z,99379.50
2022-10-23T09:53:06.695Z,99375.81
2022-10-23T09:55:34.568Z,99381.66
2022-10-23T09:58:02.848Z,99377.09
2022-10-23T10:00:30.643Z,99367.88
2022-10-23T10:02:58.923Z,99368.03
2022-10-23T10:05:26.786Z,99359.44
2022-10-23T10:07:54.667Z,99356.84
2022-10-23T10:10:22.707Z,99356.16
2022-10-23T10:12:50.603Z,99359.44
2022-10-23T10:15:18.379Z,99355.47
2022-10-23T10:17:46.279Z,99360.22
2022-10-23T10:20:14.306Z,99360.44
2022-10-23T10:22:42.793Z,99357.50
2022-10-23T10:25:10.905Z,99345.47
2022-10-23T10:27:38.765Z,99349.66
2022-10-23T10:30:06.474Z,99346.97
2022-10-23T10:32:34.293Z,99345.56
2022-10-23T10:35:02.528Z,99336.00
2022-10-23T10:37:30.245Z,99333.13
2022-10-23T10:39:58.145Z,99327.25
2022-10-23T10:42:26.011Z,99323.94
2022-10-23T10:44:53.926Z,99323.66
2022-10-23T10:47:24.916Z,99315.13
2022-10-23T10:49:52.772Z,99306.56
2022-10-23T10:52:20.640Z,99313.41
2022-10-23T10:54:48.442Z,99302.97
2022-10-23T10:57:16.352Z,99302.34
2022-10-23T10:59:44.649Z,99294.41
2022-10-23T11:02:12.922Z,99300.00
2022-10-23T11:04:40.920Z,99298.34
2022-10-23T11:07:08.779Z,99291.28
2022-10-23T11:09:36.946Z,99286.06
2022-10-23T11:12:05.805Z,99274.16
2022-10-23T11:14:33.968Z,99276.25
2022-10-23T11:17:01.831Z,99263.75
2022-10-23T11:19:29.803Z,99263.13
2022-10-23T11:21:57.548Z,99261.66
2022-10-23T11:24:26.111Z,99258.50
2022-10-23T11:26:53.978Z,99251.44
2022-10-23T11:29:21.897Z,99249.38
2022-10-23T11:31:50.216Z,99238.81
2022-10-23T11:34:18.160Z,99239.06
2022-10-23T11:36:46.461Z,99235.75
2022-10-23T11:39:14.197Z,99229.31
2022-10-23T11:41:42.055Z,99217.25
2022-10-23T11:44:10.004Z,99220.13
2022-10-23T11:46:38.448Z,99204.16
2022-10-23T11:49:06.655Z,99212.03
2022-10-23T11:51:34.603Z,99209.78
2022-10-23T11:54:02.823Z,99205.00
2022-10-23T11:56:31.546Z,99195.69
2022-10-23T11:58:59.373Z,99189.91
2022-10-23T12:01:28.132Z,99190.53
2022-10-23T12:03:55.996Z,99200.28
2022-10-23T12:06:24.269Z,99208.22
2022-10-23T12:08:52.073Z,99211.53
2022-10-23T12:11:21.639Z,99207.00
2022-10-23T12:13:52.364Z,99196.38
2022-10-23T12:16:20.467Z,99182.41
2022-10-23T12:18:48.346Z,99186.16
2022-10-23T12:21:16.110Z,99178.03
2022-10-23T12:23:47.272Z,99171.59
2022-10-23T12:26:16.925Z,99169.53
2022-10-23T12:28:44.982Z,99169.16
2022-10-23T12:31:12.855Z,99162.09
2022-10-23T12:33:40.702Z,99162.13
2022-10-23T12:36:08.686Z,99163.84
2022-10-23T12:38:40.573Z,99146.25
2022-10-23T12:41:08.518Z,99143.81
2022-10-23T12:43:36.435Z,99145.16
2022-10-23T12:46:04.275Z,99137.50
2022-10-23T12:48:32.081Z,99122.56
2022-10-23T12:51:00.455Z,99122.78
2022-10-23T12:53:28.362Z,99103.59
2022-10-23T12:55:56.304Z,99095.03
2022-10-23T12:58:24.173Z,99092.09
2022-10-23T13:00:52.099Z,99093.53
2022-10-23T13:03:20.404Z,99091.22
2022-10-23T13:05:48.251Z,99084.97
2022-10-23T13:08:16.103Z,99069.53
2022-10-23T13:10:44.054Z,99071.38
2022-10-23T13:13:11.836Z,99072.84
2022-10-23T13:15:40.550Z,99062.56
2022-10-23T13:18:08.561Z,99060.84
2022-10-23T13:20:37.100Z,99057.69
2022-10-23T13:23:05.367Z,99055.38
2022-10-23T13:25:33.353Z,99054.97
2022-10-23T13:28:01.853Z,99056.91
2022-10-23T13:30:29.778Z,99049.00
2022-10-23T13:32:57.757Z,99055.22
2022-10-23T13:35:25.483Z,99051.91
2022-10-23T13:37:53.269Z,99038.16
2022-10-23T13:40:22.922Z,99045.88
2022-10-23T13:42:51.184Z,99037.19
2022-10-23T13:45:19.561Z,99037.84
2022-10-23T13:47:47.567Z,99034.31
2022-10-23T13:50:15.458Z,99036.25
2022-10-23T13:52:43.613Z,99029.81
2022-10-23T13:55:11.462Z,99028.81
2022-10-23T13:57:39.474Z,99030.72
2022-10-23T14:00:07.336Z,99033.41
2022-10-23T14:02:35.240Z,99028.00
2022-10-23T14:05:03.795Z,99015.91
2022-10-23T14:07:32.146Z,99016.97
2022-10-23T14:09:59.936Z,99003.03
2022-10-23T14:12:27.795Z,98997.84
2022-10-23T14:14:55.585Z,99000.09
2022-10-23T14:17:24.168Z,98995.09
2022-10-23T14:19:52.235Z,98985.09
2022-10-23T14:22:20.183Z,98976.19
2022-10-23T14:24:48.182Z,98982.19
2022-10-23T14:27:16.071Z,98984.72
2022-10-23T14:29:44.432Z,98976.38
2022-10-23T14:32:12.339Z,98980.56
2022-10-23T14:34:40.987Z,98977.63
2022-10-23T14:37:09.501Z,98983.06
2022-10-23T14:39:37.599Z,98972.03
2022-10-23T14:42:06.113Z,98974.50
2022-10-23T14:44:33.929Z,98980.34
2022-10-23T14:47:03.236Z,98988.84
2022-10-23T14:49:31.151Z,98983.84
2022-10-23T14:51:59.502Z,98977.22
2022-10-23T14:54:29.902Z,98973.03
2022-10-23T14:56:57.910Z,98968.88
2022-10-23T14:59:25.762Z,98960.34
2022-10-23T15:04:26.467Z,98947.00
2022-10-23T15:06:55.082Z,98949.28
2022-10-23T15:09:23.049Z,98943.66
2022-10-23T15:11:51.126Z,98939.91
2022-10-23T15:14:20.278Z,98944.88
2022-10-23T15:16:48.659Z,98944.47
2022-10-23T15:19:18.788Z,98945.69
2022-10-23T15:21:46.945Z,98936.34
2022-10-23T15:24:14.811Z,98935.91
2022-10-23T15:26:43.540Z,98933.00
2022-10-23T15:29:11.592Z,98932.56
2022-10-23T15:31:41.071Z,98939.19
2022-10-23T15:34:09.044Z,98934.03
2022-10-23T15:36:37.209Z,98929.84
2022-10-23T15:39:05.083Z,98929.19
2022-10-23T15:41:33.084Z,98937.91
2022-10-23T15:44:01.789Z,98932.50
2022-10-23T15:46:29.621Z,98943.06
2022-10-23T15:48:57.639Z,98947.84
2022-10-23T15:51:25.422Z,98938.09
2022-10-23T15:53:53.294Z,98947.22
2022-10-23T15:56:21.936Z,98937.47
2022-10-23T15:58:49.771Z,98946.38
2022-10-23T16:01:17.818Z,98955.31
2022-10-23T16:03:46.004Z,98958.22
2022-10-23T16:06:13.940Z,98963.81
2022-10-23T16:08:44.563Z,98972.31
2022-10-23T16:11:12.539Z,98987.38
2022-10-23T16:13:40.334Z,98986.72
2022-10-23T16:16:08.207Z,98981.69
2022-10-23T16:18:36.068Z,98986.03
2022-10-23T16:21:05.135Z,98975.00
2022-10-23T16:23:33.546Z,98968.25
2022-10-23T16:26:01.610Z,98983.22
2022-10-23T16:28:29.482Z,98976.75
2022-10-23T16:30:57.361Z,98976.16
2022-10-23T16:33:25.758Z,98976.03
2022-10-23T16:35:53.766Z,98971.94
2022-10-23T16:38:21.582Z,98960.38
2022-10-23T16:40:49.515Z,98964.53
2022-10-23T16:43:17.460Z,98983.69
2022-10-23T16:45:45.892Z,98993.50
2022-10-23T16:48:13.820Z,99010.59
2022-10-23T16:50:41.693Z,99012.47
2022-10-23T16:53:09.532Z,99025.19
2022-10-23T16:55:37.414Z,99019.41
2022-10-23T16:58:06.053Z,99017.97
2022-10-23T17:00:35.559Z,99050.63
2022-10-23T17:03:03.890Z,99056.81
2022-10-23T17:05:31.742Z,99054.03
2022-10-23T17:07:59.577Z,99069.53
2022-10-23T17:10:28.208Z,99075.84
2022-10-23T17:12:56.201Z,99076.00
2022-10-23T17:15:24.215Z,99087.22
2022-10-23T17:17:52.256Z,99104.09
2022-10-23T17:20:19.982Z,99099.25
2022-10-23T17:22:48.347Z,99118.63
2022-10-23T17:25:16.575Z,99135.31
2022-10-23T17:27:44.582Z,99137.84
2022-10-23T17:30:12.933Z,99150.16
2022-10-23T17:32:41.275Z,99172.38
2022-10-23T17:35:10.020Z,99195.59
2022-10-23T17:37:37.882Z,99208.91
2022-10-23T17:40:07.028Z,99236.63
2022-10-23T17:42:35.026Z,99212.69
2022-10-23T17:45:02.873Z,99185.66
2022-10-23T17:47:33.015Z,99138.84
2022-10-23T17:50:00.797Z,99121.44
2022-10-23T17:52:28.578Z,99110.22
2022-10-23T17:54:56.592Z,99062.84
2022-10-23T17:57:24.419Z,99062.19
2022-10-23T17:59:52.926Z,99066.75
2022-10-23T18:02:20.989Z,99055.53
2022-10-23T18:04:48.917Z,99071.81
2022-10-23T18:07:16.760Z,99063.09
2022-10-23T18:09:44.945Z,99057.06
2022-10-23T18:12:13.622Z,99027.72
2022-10-23T18:14:41.527Z,99023.38
2022-10-23T18:17:09.414Z,99052.91
2022-10-23T18:19:37.197Z,99065.47
2022-10-23T18:22:05.040Z,99059.94
2022-10-23T18:24:33.359Z,99034.75
2022-10-23T18:27:01.260Z,99022.16
2022-10-23T18:29:29.166Z,99013.28
2022-10-23T18:31:59.695Z,99002.53
2022-10-23T18:34:27.603Z,98995.28
2022-10-23T18:36:55.906Z,98997.81
2022-10-23T18:39:23.801Z,98990.41
2022-10-23T18:41:51.621Z,98970.25
2022-10-23T18:44:19.560Z,98975.94
2022-10-23T18:46:47.546Z,98970.19
2022-10-23T18:49:16.005Z,98964.28
2022-10-23T18:51:43.842Z,98970.97
2022-10-23T18:54:12.153Z,98971.59
2022-10-23T18:56:40.125Z,98955.97
2022-10-23T18:59:07.982Z,98955.13
2022-10-23T19:01:36.330Z,98955.97
2022-10-23T19:04:04.216Z,98948.09
2022-10-23T19:06:31.995Z,98945.22
2022-10-23T19:08:59.903Z,98954.31
2022-10-23T19:11:27.959Z,98953.28
2022-10-23T19:13:56.558Z,98954.31
2022-10-23T19:16:24.818Z,98956.31
2022-10-23T19:18:52.687Z,98942.72
2022-10-23T19:21:20.702Z,98947.59
2022-10-23T19:23:48.513Z,98938.91
2022-10-23T19:26:16.910Z,98930.84
2022-10-23T19:28:44.782Z,98929.66
2022-10-23T19:31:12.799Z,98933.53
2022-10-23T19:33:40.668Z,98935.56
2022-10-23T19:36:12.646Z,98931.50
2022-10-23T19:38:43.560Z,98933.53
2022-10-23T19:41:11.583Z,98935.91
2022-10-23T19:43:39.494Z,98927.38
2022-10-23T19:46:10.994Z,98936.63
2022-10-23T19:48:42.663Z,98936.63
2022-10-23T19:51:11.211Z,98923.88
2022-10-23T19:53:38.982Z,98924.81
2022-10-23T19:56:06.885Z,98918.34
2022-10-23T19:58:34.835Z,98919.31
2022-10-23T20:01:02.629Z,98917.72
2022-10-23T20:03:30.894Z,98927.94
2022-10-23T20:05:58.880Z,98922.88
2022-10-23T20:08:29.130Z,98919.00
2022-10-23T20:11:00.425Z,98931.41
2022-10-23T20:13:28.228Z,98932.06
2022-10-23T20:15:56.701Z,98939.94
2022-10-23T20:18:24.598Z,98940.75
2022-10-23T20:20:52.669Z,98950.88
2022-10-23T20:23:20.520Z,98948.00
2022-10-23T20:25:48.438Z,98948.66
2022-10-23T20:28:16.476Z,98940.75
2022-10-23T20:30:45.723Z,98929.53
2022-10-23T20:33:13.677Z,98922.88
2022-10-23T20:35:41.536Z,98922.16
2022-10-23T20:38:09.559Z,98931.25
2022-10-23T20:40:38.040Z,98931.94
2022-10-23T20:43:05.882Z,98936.97
2022-10-23T20:45:33.716Z,98938.28
2022-10-23T20:48:01.656Z,98955.03
2022-10-23T20:50:29.409Z,98962.72
2022-10-23T20:52:57.363Z,98948.28
2022-10-23T20:55:25.313Z,98942.53
2022-10-23T20:57:53.152Z,98966.00
2022-10-23T21:00:21.052Z,98949.31
2022-10-23T21:02:52.118Z,98981.66
2022-10-23T21:05:20.955Z,98984.28
2022-10-23T21:07:48.741Z,98990.59
2022-10-23T21:10:16.576Z,99002.66
2022-10-23T21:12:44.565Z,99003.09
2022-10-23T21:15:12.416Z,99015.56
2022-10-23T21:17:41.657Z,99017.00
2022-10-23T21:20:09.395Z,99038.81
2022-10-23T21:22:37.167Z,99040.22
2022-10-23T21:25:05.369Z,99046.81
2022-10-23T21:27:33.060Z,99053.94
2022-10-23T21:30:01.028Z,99057.59
2022-10-23T21:32:28.761Z,99059.56
2022-10-23T21:34:56.492Z,99058.81
2022-10-23T21:37:25.272Z,99056.19
2022-10-23T21:39:53.092Z,99076.16
2022-10-23T21:42:21.393Z,99077.47
2022-10-23T21:44:49.181Z,99078.38
2022-10-23T21:47:17.236Z,99062.00
2022-10-23T21:49:44.968Z,99050.78
2022-10-23T21:52:15.018Z,99045.13
2022-10-23T21:54:45.955Z,99022.56
2022-10-23T21:57:13.637Z,99029.84
2022-10-23T21:59:41.299Z,99026.56
2022-10-23T22:02:09.539Z,99035.38
2022-10-23T22:04:38.011Z,99033.25
2022-10-23T22:07:06.291Z,99033.63
2022-10-23T22:09:34.382Z,99040.03
2022-10-23T22:12:02.067Z,99030.66
2022-10-23T22:14:29.819Z,99033.91
2022-10-23T22:16:57.739Z,99030.75
2022-10-23T22:19:25.987Z,99032.97
2022-10-23T22:21:53.638Z,99029.81
2022-10-23T22:24:21.318Z,99025.84
2022-10-23T22:26:48.899Z,99033.44
2022-10-23T22:29:16.550Z,99031.09
2022-10-23T22:31:49.654Z,99029.44
2022-10-23T22:34:26.700Z,99022.00
2022-10-23T22:37:01.780Z,99038.16
2022-10-23T22:39:29.451Z,99027.38
2022-10-23T22:41:57.629Z,99021.84
2022-10-23T22:44:25.322Z,99014.78
2022-10-23T22:46:53.315Z,99022.84
2022-10-23T22:49:20.946Z,99014.78
2022-10-23T22:51:48.985Z,99003.00
2022-10-23T22:54:16.657Z,99013.41
2022-10-23T22:56:44.241Z,99016.75
2022-10-23T22:59:11.916Z,99024.63
2022-10-23T23:01:39.585Z,99013.69
2022-10-23T23:04:19.434Z,99015.56
2022-10-23T23:06:53.963Z,99030.00
2022-10-23T23:09:21.622Z,99016.75
2022-10-23T23:11:52.890Z,99010.72
2022-10-23T23:14:23.579Z,99010.06
2022-10-23T23:16:52.337Z,99019.78
2022-10-23T23:19:20.852Z,99015.91
2022-10-23T23:21:48.468Z,99019.44
2022-10-23T23:24:16.034Z,99010.34
2022-10-23T23:26:43.606Z,99008.47
2022-10-23T23:29:11.204Z,99013.03
2022-10-23T23:31:39.123Z,99005.13
2022-10-23T23:34:07.015Z,99014.63
2022-10-23T23:36:35.128Z,99009.41
2022-10-23T23:41:35.204Z,99006.53
2022-10-23T23:44:03.191Z,99012.75
2022-10-23T23:46:30.789Z,99009.88
2022-10-23T23:48:58.385Z,99006.00
2022-10-23T23:51:26.013Z,99013.03
2022-10-23T23:53:53.617Z,99029.63
2022-10-23T23:56:22.408Z,99025.75
2022-10-23T23:58:50.069Z,99017.69
